Time;durP1;ratioP1;P1;durP2;ratioP2;P2;SDS_P1;SDS_P2;PMS_P1;PMS_P2;Temp;Humidity;BMP_temperature;BMP_pressure;BME280_temperature;BME280_humidity;BME280_pressure;Samples;Min_cycle;Max_cycle;Signal;HPM_P1;HPM_P2
2021/09/08 00:14:33;;;;;;;;;;;;;;;12.19;73.50;100596.81;5094510;28;898;-59
2021/09/08 00:17:01;;;;;;;;;;;;;;;12.16;73.81;100603.94;5093547;28;833;-58
2021/09/08 00:19:28;;;;;;;;;;;;;;;12.15;73.60;100607.88;5094005;28;1287;-59
2021/09/08 00:21:54;;;;;;;;;;;;;;;12.11;73.69;100600.75;5094043;28;1914;-59
2021/09/08 00:24:21;;;;;;;;;;;;;;;12.02;73.93;100603.91;5094414;28;814;-59
2021/09/08 00:38:58;;;;;;;;;;;;;;;11.80;75.43;100603.81;5094168;28;593;-59
2021/09/08 00:41:28;;;;;;;;;;;;;;;11.79;75.23;100595.91;5093689;28;1897;-59
2021/09/08 00:43:55;;;;;;;;;;;;;;;11.80;75.42;100601.06;5093681;28;830;-59
2021/09/08 00:46:22;;;;;;;;;;;;;;;11.78;75.58;100597.88;5093608;28;814;-58
2021/09/08 00:48:48;;;;;;;;;;;;;;;11.75;75.63;100597.84;5093641;28;822;-58
2021/09/08 00:51:15;;;;;;;;;;;;;;;11.73;75.74;100603.00;5093524;28;877;-58
2021/09/08 00:53:41;;;;;;;;;;;;;;;11.69;76.00;100600.22;5093567;28;838;-58
2021/09/08 00:56:08;;;;;;;;;;;;;;;11.68;75.71;100601.41;5093351;28;822;-58
2021/09/08 00:58:35;;;;;;;;;;;;;;;11.68;75.88;100603.38;5093442;28;791;-59
2021/09/08 01:01:01;;;;;;;;;;;;;;;11.69;76.28;100596.66;5093579;28;1906;-59
2021/09/08 01:03:28;;;;;;;;;;;;;;;11.71;75.98;100595.06;5093598;28;838;-59
2021/09/08 01:05:54;;;;;;;;;;;;;;;11.74;75.89;100585.22;5093248;28;862;-58
2021/09/08 01:08:21;;;;;;;;;;;;;;;11.78;75.69;100592.34;5093228;28;842;-58
2021/09/08 01:10:48;;;;;;;;;;;;;;;11.75;75.85;100590.34;5093329;28;826;-59
2021/09/08 01:25:45;;;;;;;;;;;;;;;11.69;75.82;100571.72;5076886;28;1331;-59
2021/09/08 01:28:11;;;;;;;;;;;;;;;11.67;75.91;100579.63;5092052;28;822;-59
2021/09/08 01:30:42;;;;;;;;;;;;;;;11.62;76.04;100576.06;5092734;28;818;-58
2021/09/08 01:33:12;;;;;;;;;;;;;;;11.60;76.21;100577.63;5093048;28;853;-58
2021/09/08 01:35:38;;;;;;;;;;;;;;;11.55;76.47;100570.50;5092637;28;819;-58
2021/09/08 01:38:05;;;;;;;;;;;;;;;11.54;76.67;100571.69;5092767;28;846;-59
2021/09/08 01:52:52;;;;;;;;;;;;;;;11.56;76.38;100565.75;5010507;28;989;-58
2021/09/08 01:55:18;;;;;;;;;;;;;;;11.53;76.57;100570.09;5010362;28;862;-58
2021/09/08 01:57:45;;;;;;;;;;;;;;;11.55;76.62;100564.19;5010652;28;926;-58
2021/09/08 02:00:13;;;;;;;;;;;;;;;11.56;76.58;100571.28;5010342;28;854;-58
2021/09/08 02:14:50;;;;;;;;;;;;;;;11.43;76.26;100579.16;5010053;28;1159;-58
2021/09/08 02:17:17;;;;;;;;;;;;;;;11.40;76.68;100575.19;5010104;28;962;-59
2021/09/08 02:19:44;;;;;;;;;;;;;;;11.36;77.09;100581.91;5010207;28;901;-58
2021/09/08 02:22:10;;;;;;;;;;;;;;;11.33;77.06;100577.94;5010199;28;1906;-58
2021/09/08 02:24:36;;;;;;;;;;;;;;;11.30;77.11;100580.69;5010177;28;871;-59
2021/09/08 02:27:02;;;;;;;;;;;;;;;11.28;77.13;100566.44;5009841;28;1276;-59
2021/09/08 02:29:29;;;;;;;;;;;;;;;11.26;77.53;100574.34;5067800;28;939;-59
2021/09/08 02:31:55;;;;;;;;;;;;;;;11.29;77.38;100568.84;5091952;28;889;-58
2021/09/08 02:34:21;;;;;;;;;;;;;;;11.34;77.41;100554.59;5091722;28;775;-58
2021/09/08 02:36:50;;;;;;;;;;;;;;;11.38;77.24;100551.88;5091783;28;881;-59
2021/09/08 02:39:16;;;;;;;;;;;;;;;11.38;76.83;100557.41;5073216;28;1228;-58
2021/09/08 02:41:42;;;;;;;;;;;;;;;11.37;76.79;100547.50;5091609;28;1929;-58
2021/09/08 02:44:09;;;;;;;;;;;;;;;11.34;77.15;100554.59;5091538;28;783;-58
2021/09/08 02:46:37;;;;;;;;;;;;;;;11.31;77.14;100551.81;5091613;28;834;-58
2021/09/08 02:49:03;;;;;;;;;;;;;;;11.30;77.45;100555.78;5091591;28;850;-59
2021/09/08 02:51:30;;;;;;;;;;;;;;;11.33;77.35;100549.44;5091545;28;814;-59
2021/09/08 02:53:56;;;;;;;;;;;;;;;11.36;77.20;100548.69;5091499;28;901;-58
2021/09/08 02:56:23;;;;;;;;;;;;;;;11.36;77.14;100549.47;5091508;28;854;-58
2021/09/08 02:58:50;;;;;;;;;;;;;;;11.35;77.17;100550.69;5073416;28;1191;-58
2021/09/08 03:01:16;;;;;;;;;;;;;;;11.38;76.94;100560.94;5091641;28;1998;-58
2021/09/08 03:03:47;;;;;;;;;;;;;;;11.39;77.20;100556.19;5073288;28;1208;-58
2021/09/08 03:06:14;;;;;;;;;;;;;;;11.41;76.63;100548.31;5091382;28;900;-58
2021/09/08 03:08:39;;;;;;;;;;;;;;;11.45;76.78;100541.59;5091436;28;830;-58
2021/09/08 03:11:07;;;;;;;;;;;;;;;11.48;76.39;100548.34;5073217;28;1204;-59
2021/09/08 03:13:34;;;;;;;;;;;;;;;11.48;76.67;100547.53;5091595;28;815;-59
2021/09/08 03:16:01;;;;;;;;;;;;;;;11.49;76.54;100544.38;5091339;28;991;-59
2021/09/08 03:18:27;;;;;;;;;;;;;;;11.49;76.47;100540.84;5091281;28;818;-58
2021/09/08 03:20:54;;;;;;;;;;;;;;;11.44;76.65;100542.00;5091308;28;1943;-58
2021/09/08 03:23:25;;;;;;;;;;;;;;;11.42;76.34;100538.84;5091275;28;854;-59
2021/09/08 03:25:52;;;;;;;;;;;;;;;11.45;76.57;100541.59;5091439;28;1264;-58
2021/09/08 03:28:19;;;;;;;;;;;;;;;11.45;76.48;100540.81;5091571;28;881;-59
2021/09/08 03:33:48;;;;;;;;;;;;;;;11.49;76.00;100549.13;5091293;28;688;-58
2021/09/08 03:36:15;;;;;;;;;;;;;;;11.50;76.58;100545.97;5091143;28;823;-59
2021/09/08 03:38:41;;;;;;;;;;;;;;;11.51;76.02;100553.09;5091180;28;787;-59
2021/09/08 03:41:08;;;;;;;;;;;;;;;11.53;76.33;100549.94;5091094;28;1910;-58
2021/09/08 03:43:34;;;;;;;;;;;;;;;11.54;76.26;100546.78;5091064;28;798;-59
2021/09/08 03:46:05;;;;;;;;;;;;;;;11.54;76.25;100545.97;5091149;28;854;-58
2021/09/08 03:48:32;;;;;;;;;;;;;;;11.57;75.72;100551.53;5091024;28;806;-58
2021/09/08 03:51:00;;;;;;;;;;;;;;;11.59;76.23;100542.84;5073827;28;1374;-58
2021/09/08 03:53:27;;;;;;;;;;;;;;;11.63;75.93;100541.66;5094588;28;861;-58
2021/09/08 03:55:53;;;;;;;;;;;;;;;11.67;75.73;100561.06;5094818;28;818;-59
2021/09/08 03:58:19;;;;;;;;;;;;;;;11.74;75.33;100547.22;5076438;28;838;-59
2021/09/08 04:03:50;;;;;;;;;;;;;;;11.86;75.09;100551.59;5094601;28;692;-58
2021/09/08 04:06:17;;;;;;;;;;;;;;;11.98;75.01;100548.47;5076244;28;1199;-59
2021/09/08 04:08:44;;;;;;;;;;;;;;;12.08;74.08;100541.38;5094432;28;819;-58
2021/09/08 04:11:11;;;;;;;;;;;;;;;12.16;74.11;100551.28;5094402;28;837;-59
2021/09/08 04:25:49;;;;;;;;;;;;;;;12.49;72.70;100545.72;5088554;28;1365;-59
2021/09/08 04:40:27;;;;;;;;;;;;;;;13.00;70.72;100548.00;5094203;28;624;-59
2021/09/08 04:42:54;;;;;;;;;;;;;;;13.05;70.52;100546.78;5093685;28;1981;-58
2021/09/08 04:45:23;;;;;;;;;;;;;;;13.26;69.97;100555.03;5093704;28;810;-59
2021/09/08 04:50:52;;;;;;;;;;;;;;;13.66;68.76;100563.22;5093623;28;640;-58
2021/09/08 04:53:18;;;;;;;;;;;;;;;13.66;68.68;100563.22;5093677;28;814;-59
2021/09/08 04:55:46;;;;;;;;;;;;;;;13.53;68.92;100554.56;5093404;28;1025;-58
2021/09/08 04:58:13;;;;;;;;;;;;;;;13.54;69.18;100569.25;5093468;28;849;-59
2021/09/08 05:17:33;;;;;;;;;;;;;;;15.27;64.24;100556.28;5101890;22;1573;-59
2021/09/08 05:20:01;;;;;;;;;;;;;;;15.54;63.14;100554.78;5072877;28;869;-59
2021/09/08 05:22:28;;;;;;;;;;;;;;;15.67;62.60;100558.56;5072692;28;1917;-59
2021/09/08 05:24:55;;;;;;;;;;;;;;;15.93;61.71;100557.03;5072837;28;884;-59
2021/09/08 05:27:21;;;;;;;;;;;;;;;15.79;62.15;100558.03;5072620;28;865;-59
2021/09/08 05:29:48;;;;;;;;;;;;;;;15.98;62.05;100553.78;5072637;28;810;-59
2021/09/08 05:32:15;;;;;;;;;;;;;;;16.21;61.11;100553.00;5072544;28;943;-59
2021/09/08 05:34:41;;;;;;;;;;;;;;;16.33;60.66;100549.63;5072506;28;806;-59
2021/09/08 05:37:11;;;;;;;;;;;;;;;16.58;60.04;100545.63;5054529;28;830;-59
2021/09/08 05:39:38;;;;;;;;;;;;;;;17.02;58.56;100543.63;5072402;28;802;-59
2021/09/08 05:42:03;;;;;;;;;;;;;;;17.30;57.58;100545.06;5072274;28;1894;-59
2021/09/08 05:44:30;;;;;;;;;;;;;;;17.48;57.17;100539.09;5072315;28;818;-59
2021/09/08 05:46:57;;;;;;;;;;;;;;;17.66;56.89;100544.28;5072124;28;850;-59
2021/09/08 06:01:25;;;;;;;;;;;;;;;19.50;51.17;100545.97;5072378;28;1870;-59
2021/09/08 06:03:52;;;;;;;;;;;;;;;19.49;51.39;100536.00;5072020;28;818;-59
2021/09/08 06:06:19;;;;;;;;;;;;;;;19.52;51.22;100544.31;5072119;28;814;-59
2021/09/08 06:08:46;;;;;;;;;;;;;;;19.87;50.27;100543.72;5071953;28;861;-59
2021/09/08 06:11:14;;;;;;;;;;;;;;;20.23;49.87;100543.34;5072034;28;837;-59
2021/09/08 06:13:40;;;;;;;;;;;;;;;20.70;48.63;100544.59;5071363;28;830;-59
2021/09/08 06:16:06;;;;;;;;;;;;;;;21.18;47.21;100557.28;5072329;28;984;-59
2021/09/08 06:18:33;;;;;;;;;;;;;;;21.29;46.89;100553.31;5071860;28;1285;-59
2021/09/08 06:21:00;;;;;;;;;;;;;;;21.65;46.75;100547.13;5072251;28;1913;-59
2021/09/08 06:35:39;;;;;;;;;;;;;;;21.65;45.61;100549.16;5071884;28;613;-59
2021/09/08 06:38:06;;;;;;;;;;;;;;;21.97;44.20;100557.13;5071529;28;822;-59
2021/09/08 06:40:33;;;;;;;;;;;;;;;21.90;44.72;100556.63;5071470;28;791;-59
2021/09/08 06:43:07;;;;;;;;;;;;;;;22.40;43.69;100568.69;5071434;28;1894;-59
2021/09/08 06:45:33;;;;;;;;;;;;;;;22.57;43.37;100558.69;5071698;28;810;-59
2021/09/08 06:48:15;;;;;;;;;;;;;;;23.26;42.28;100562.19;5071498;28;901;-59
2021/09/08 06:50:42;;;;;;;;;;;;;;;23.97;41.20;100555.25;5071363;28;813;-59
2021/09/08 06:53:08;;;;;;;;;;;;;;;24.47;39.37;100566.09;5071357;28;889;-59
2021/09/08 06:55:35;;;;;;;;;;;;;;;24.73;39.63;100565.63;5071336;28;834;-59
2021/09/08 06:58:02;;;;;;;;;;;;;;;25.04;38.93;100562.41;5071314;28;850;-59
2021/09/08 07:00:28;;;;;;;;;;;;;;;24.84;39.29;100560.22;5071360;28;889;-59
2021/09/08 07:02:55;;;;;;;;;;;;;;;24.64;39.62;100558.81;5071232;28;1955;-59
2021/09/08 07:05:21;;;;;;;;;;;;;;;25.30;39.17;100553.41;5071252;28;869;-59
2021/09/08 07:07:48;;;;;;;;;;;;;;;26.27;37.43;100548.78;5071431;28;894;-59
2021/09/08 07:10:15;;;;;;;;;;;;;;;26.90;36.05;100551.13;5053299;28;912;-59
2021/09/08 07:12:41;;;;;;;;;;;;;;;26.52;35.63;100550.13;5071492;28;852;-59
2021/09/08 07:15:11;;;;;;;;;;;;;;;25.55;36.74;100561.28;5071272;28;977;-59
2021/09/08 07:17:40;;;;;;;;;;;;;;;23.87;39.29;100565.00;5070967;28;1375;-59
2021/09/08 07:20:07;;;;;;;;;;;;;;;23.38;40.71;100575.31;5071154;28;881;-59
2021/09/08 07:22:33;;;;;;;;;;;;;;;24.24;39.72;100571.28;5071019;28;1973;-59
2021/09/08 07:25:00;;;;;;;;;;;;;;;24.93;38.16;100565.81;5071152;28;810;-59
2021/09/08 07:27:27;;;;;;;;;;;;;;;25.52;36.99;100570.78;5056533;28;1342;-59
2021/09/08 07:29:53;;;;;;;;;;;;;;;26.16;35.79;100563.56;5074895;28;881;-59
2021/09/08 07:32:20;;;;;;;;;;;;;;;26.44;35.42;100568.84;5074894;28;849;-59
2021/09/08 07:34:59;;;;;;;;;;;;;;;26.63;34.43;100572.22;5074771;28;810;-59
2021/09/08 07:37:26;;;;;;;;;;;;;;;25.66;35.81;100575.63;5074961;28;806;-59
2021/09/08 07:39:56;;;;;;;;;;;;;;;24.84;37.30;100585.69;5074728;28;797;-59
2021/09/08 07:45:26;;;;;;;;;;;;;;;23.82;39.97;100585.44;5066218;28;1179;-59
2021/09/08 08:00:07;;;;;;;;;;;;;;;27.40;33.49;100573.59;5074831;28;660;-59
2021/09/08 08:02:54;;;;;;;;;;;;;;;27.08;33.25;100576.34;5074228;28;1899;-59
2021/09/08 08:05:23;;;;;;;;;;;;;;;26.71;34.26;100581.84;5074232;28;1311;-59
2021/09/08 08:07:50;;;;;;;;;;;;;;;26.93;34.02;100592.69;5074234;28;837;-59
2021/09/08 08:10:17;;;;;;;;;;;;;;;27.27;33.89;100582.50;5074418;28;878;-59
2021/09/08 08:12:44;;;;;;;;;;;;;;;27.55;34.10;100589.75;5074339;28;774;-59
2021/09/08 08:15:13;;;;;;;;;;;;;;;27.36;33.29;100578.72;5074235;28;948;-59
2021/09/08 08:17:40;;;;;;;;;;;;;;;27.52;34.05;100582.22;5073792;28;1383;-59
2021/09/08 08:20:08;;;;;;;;;;;;;;;27.73;32.46;100578.00;5074121;28;969;-59
2021/09/08 08:22:35;;;;;;;;;;;;;;;27.62;33.04;100577.91;5073882;28;1906;-59
2021/09/08 08:25:03;;;;;;;;;;;;;;;27.22;33.52;100577.53;5073854;28;795;-59
2021/09/08 08:27:31;;;;;;;;;;;;;;;27.07;33.32;100560.59;5073933;28;810;-59
2021/09/08 08:29:57;;;;;;;;;;;;;;;27.32;33.26;100566.03;5073817;28;869;-59
2021/09/08 08:32:24;;;;;;;;;;;;;;;27.49;33.95;100576.25;5073764;28;791;-59
2021/09/08 08:34:52;;;;;;;;;;;;;;;27.43;33.50;100578.25;5073910;28;818;-59
2021/09/08 08:37:18;;;;;;;;;;;;;;;26.34;34.82;100578.75;5073126;28;865;-59
2021/09/08 08:39:45;;;;;;;;;;;;;;;26.06;35.79;100587.63;5073663;28;860;-59
2021/09/08 08:42:19;;;;;;;;;;;;;;;25.96;35.45;100578.44;5073444;28;1881;-59
2021/09/08 08:44:53;;;;;;;;;;;;;;;26.47;35.06;100574.28;5055560;28;1280;-59
2021/09/08 08:47:20;;;;;;;;;;;;;;;26.98;33.89;100566.44;5073473;28;783;-59
2021/09/08 08:50:05;;;;;;;;;;;;;;;27.20;33.38;100565.09;5073451;28;882;-59
2021/09/08 08:52:32;;;;;;;;;;;;;;;26.46;33.98;100567.06;5073452;28;783;-59
2021/09/08 08:54:58;;;;;;;;;;;;;;;26.06;35.27;100568.56;5073693;28;797;-59
2021/09/08 08:57:26;;;;;;;;;;;;;;;26.48;35.22;100569.41;5073563;28;806;-59
2021/09/08 08:59:52;;;;;;;;;;;;;;;26.25;35.15;100571.16;5073580;28;771;-59
2021/09/08 09:02:26;;;;;;;;;;;;;;;25.27;36.94;100561.59;5073439;28;1889;-59
2021/09/08 09:04:55;;;;;;;;;;;;;;;24.95;38.39;100568.94;5073134;28;934;-59
2021/09/08 09:07:22;;;;;;;;;;;;;;;25.99;36.54;100565.34;5073141;28;790;-59
2021/09/08 09:09:58;;;;;;;;;;;;;;;26.46;35.47;100558.56;5073075;28;862;-59
2021/09/08 09:12:26;;;;;;;;;;;;;;;25.63;36.55;100570.19;5073189;28;850;-59
2021/09/08 09:14:58;;;;;;;;;;;;;;;24.72;38.42;100567.69;5073031;28;1024;-59
2021/09/08 09:17:28;;;;;;;;;;;;;;;24.35;39.14;100572.78;5073018;28;878;-59
2021/09/08 09:19:55;;;;;;;;;;;;;;;23.89;39.87;100567.38;5034970;28;1334;-59
2021/09/08 09:22:25;;;;;;;;;;;;;;;24.12;40.30;100572.28;5052804;28;1976;-59
2021/09/08 09:24:53;;;;;;;;;;;;;;;24.32;39.65;100568.88;5052842;28;869;-59
2021/09/08 09:27:19;;;;;;;;;;;;;;;24.12;39.92;100566.63;5052660;28;779;-59
2021/09/08 09:29:46;;;;;;;;;;;;;;;24.47;39.72;100571.75;5052743;28;858;-59
2021/09/08 09:32:12;;;;;;;;;;;;;;;24.47;39.29;100554.81;5052750;28;814;-59
2021/09/08 09:34:40;;;;;;;;;;;;;;;24.28;39.78;100573.13;5052603;28;892;-59
2021/09/08 09:37:07;;;;;;;;;;;;;;;24.15;40.21;100560.00;5052742;28;774;-59
2021/09/08 09:42:38;;;;;;;;;;;;;;;24.25;40.74;100544.59;5052549;28;1901;-59
2021/09/08 09:45:07;;;;;;;;;;;;;;;24.56;39.37;100537.84;5052241;28;1085;-59
2021/09/08 09:47:38;;;;;;;;;;;;;;;24.39;39.58;100545.16;5052265;28;822;-59
2021/09/08 09:50:10;;;;;;;;;;;;;;;24.42;40.05;100533.66;5033742;28;1272;-59
2021/09/08 09:55:38;;;;;;;;;;;;;;;25.25;38.21;100526.56;5052253;28;656;-59
2021/09/08 09:58:05;;;;;;;;;;;;;;;25.33;38.18;100522.09;5052138;28;854;-59
2021/09/08 10:00:31;;;;;;;;;;;;;;;25.41;37.92;100516.81;5052126;28;873;-59
2021/09/08 10:02:58;;;;;;;;;;;;;;;24.84;38.27;100524.25;5052045;28;1918;-59
2021/09/08 10:05:25;;;;;;;;;;;;;;;24.62;39.13;100532.28;5051934;28;884;-59
2021/09/08 10:07:52;;;;;;;;;;;;;;;24.30;39.30;100536.72;5052013;28;802;-59
2021/09/08 10:10:25;;;;;;;;;;;;;;;24.11;39.69;100521.91;5051876;28;803;-59
2021/09/08 10:12:57;;;;;;;;;;;;;;;24.80;39.52;100534.19;5052245;28;912;-59
2021/09/08 10:15:24;;;;;;;;;;;;;;;25.47;38.35;100501.47;5051946;28;981;-59
2021/09/08 10:17:51;;;;;;;;;;;;;;;25.79;36.72;100518.69;5055082;28;1395;-59
2021/09/08 10:20:21;;;;;;;;;;;;;;;25.86;37.17;100497.69;5071756;28;869;-59
2021/09/08 10:32:17;;;;;;;;;;;;;;;24.19;39.56;100498.50;5072291;28;865;-59
2021/09/08 10:35:14;;;;;;;;;;;;;;;23.86;40.74;100509.06;5009728;28;954;-59
2021/09/08 10:37:45;;;;;;;;;;;;;;;24.27;39.85;100492.50;5009824;28;891;-59
2021/09/08 10:40:12;;;;;;;;;;;;;;;24.77;38.42;100496.38;5009669;28;929;-59
2021/09/08 10:42:52;;;;;;;;;;;;;;;25.49;36.97;100497.38;5009701;28;1894;-59
2021/09/08 10:45:19;;;;;;;;;;;;;;;26.29;35.62;100486.72;5009728;28;1028;-59
2021/09/08 10:47:46;;;;;;;;;;;;;;;26.60;35.23;100476.81;5009826;28;869;-59
2021/09/08 10:50:13;;;;;;;;;;;;;;;26.37;34.83;100487.06;5009707;28;814;-59
2021/09/08 10:52:41;;;;;;;;;;;;;;;25.95;35.46;100503.28;5009672;28;1066;-60
2021/09/08 10:55:14;;;;;;;;;;;;;;;25.72;35.98;100496.47;5009719;28;811;-59
2021/09/08 10:57:40;;;;;;;;;;;;;;;25.31;36.86;100504.03;5009642;28;858;-59
2021/09/08 11:00:08;;;;;;;;;;;;;;;24.80;38.28;100511.56;5010917;28;936;-59
2021/09/08 11:02:42;;;;;;;;;;;;;;;24.23;39.17;100504.75;5013608;28;1951;-59
2021/09/08 11:05:10;;;;;;;;;;;;;;;23.80;39.97;100498.41;5013602;28;912;-59
2021/09/08 11:07:47;;;;;;;;;;;;;;;23.74;38.52;100499.50;5013542;28;854;-59
2021/09/08 11:10:22;;;;;;;;;;;;;;;23.82;37.92;100492.28;5013467;28;873;-59
2021/09/08 11:12:49;;;;;;;;;;;;;;;24.48;35.94;100491.41;5063752;28;1041;-59
2021/09/08 11:15:18;;;;;;;;;;;;;;;25.21;35.54;100484.31;5075260;28;912;-59
2021/09/08 11:17:53;;;;;;;;;;;;;;;26.03;34.29;100476.09;5074941;28;1186;-59
2021/09/08 11:20:19;;;;;;;;;;;;;;;26.22;33.78;100490.78;5075152;28;882;-59
2021/09/08 11:23:02;;;;;;;;;;;;;;;26.21;33.86;100480.69;5074989;28;1882;-59
2021/09/08 11:25:29;;;;;;;;;;;;;;;26.26;33.41;100490.53;5075363;28;869;-59
2021/09/08 11:27:56;;;;;;;;;;;;;;;26.35;33.15;100469.78;5075378;28;806;-59
2021/09/08 11:42:40;;;;;;;;;;;;;;;27.18;31.61;100476.88;5074687;28;1952;-59
2021/09/08 11:45:07;;;;;;;;;;;;;;;27.66;30.81;100473.41;5074826;28;850;-59
2021/09/08 11:50:36;;;;;;;;;;;;;;;27.71;30.07;100469.81;5074626;28;596;-59
2021/09/08 11:53:03;;;;;;;;;;;;;;;27.96;30.50;100465.34;5074493;28;842;-59
2021/09/08 11:55:38;;;;;;;;;;;;;;;27.66;30.40;100464.91;5074757;28;806;-59
2021/09/08 11:58:17;;;;;;;;;;;;;;;27.00;30.65;100461.00;5074457;28;794;-59
2021/09/08 12:01:00;;;;;;;;;;;;;;;25.82;32.72;100463.16;5074322;28;854;-59
2021/09/08 12:03:27;;;;;;;;;;;;;;;25.36;33.46;100464.50;5074272;28;1890;-59
2021/09/08 12:06:06;;;;;;;;;;;;;;;25.51;33.06;100460.88;5074251;28;838;-59
2021/09/08 12:08:33;;;;;;;;;;;;;;;25.82;32.84;100444.13;5074690;28;810;-59
2021/09/08 12:10:59;;;;;;;;;;;;;;;26.22;32.33;100445.44;5074043;28;885;-59
2021/09/08 12:13:28;;;;;;;;;;;;;;;26.25;32.64;100447.28;5073856;28;881;-59
2021/09/08 12:29:03;;;;;;;;;;;;;;;26.81;31.88;100435.03;5053952;28;676;-59
2021/09/08 12:31:29;;;;;;;;;;;;;;;27.44;31.13;100426.56;5037265;28;1239;-59
2021/09/08 12:34:01;;;;;;;;;;;;;;;27.52;30.62;100423.25;5053793;28;904;-60
2021/09/08 12:36:29;;;;;;;;;;;;;;;27.42;30.75;100425.50;5053652;28;886;-60
2021/09/08 12:39:09;;;;;;;;;;;;;;;27.15;31.15;100421.91;5053728;28;854;-59
2021/09/08 12:53:47;;;;;;;;;;;;;;;24.74;37.57;100428.72;5053744;28;596;-59
2021/09/08 12:56:13;;;;;;;;;;;;;;;25.28;36.08;100415.25;5053328;28;875;-59
2021/09/08 12:58:40;;;;;;;;;;;;;;;25.86;35.47;100415.56;5053398;28;901;-59
2021/09/08 13:01:06;;;;;;;;;;;;;;;26.77;33.78;100421.06;5053279;28;854;-60
2021/09/08 13:15:44;;;;;;;;;;;;;;;26.65;33.10;100408.84;5053664;28;980;-59
2021/09/08 13:30:35;;;;;;;;;;;;;;;26.86;33.21;100392.56;5069711;28;1382;-60
2021/09/08 13:33:02;;;;;;;;;;;;;;;26.98;32.69;100390.56;5072610;28;822;-60
2021/09/08 13:35:31;;;;;;;;;;;;;;;26.61;33.56;100387.69;5072516;28;842;-59
